Time;durP1;ratioP1;P1;durP2;ratioP2;P2;SDS_P1;SDS_P2;PMS_P1;PMS_P2;Temp;Humidity;BMP_temperature;BMP_pressure;BME280_temperature;BME280_humidity;BME280_pressure;Samples;Min_cycle;Max_cycle;Signal;HPM_P1;HPM_P2
2023/08/29 00:01:31;;;;;;;4.97;2.85;;;;;;;;;;5083823;28;20040;-78
2023/08/29 00:03:58;;;;;;;3.03;2.63;;;;;;;;;;5086528;28;20467;-78
2023/08/29 00:06:24;;;;;;;2.60;2.40;;;;;;;;;;5067717;28;20048;-78
2023/08/29 00:08:50;;;;;;;2.40;2.20;;;;;;;;;;5087962;28;20098;-79
2023/08/29 00:11:19;;;;;;;2.80;2.30;;;;;;;;;;5087202;28;20496;-78
2023/08/29 00:13:46;;;;;;;3.40;2.30;;;;;;;;;;5089461;28;20036;-78
2023/08/29 00:16:16;;;;;;;3.38;3.05;;;;;;;;;;5087208;28;20059;-78
2023/08/29 00:18:42;;;;;;;3.30;2.70;;;;;;;;;;5067472;28;20050;-79
2023/08/29 00:21:08;;;;;;;4.20;2.80;;;;;;;;;;5086849;28;20051;-79
2023/08/29 00:23:34;;;;;;;4.28;2.65;;;;;;;;;;5069311;28;20476;-78
2023/08/29 00:26:00;;;;;;;4.45;2.80;;;;;;;;;;5066770;28;20681;-79
2023/08/29 00:28:27;;;;;;;3.33;3.00;;;;;;;;;;5086848;28;20552;-78
2023/08/29 00:30:54;;;;;;;4.75;2.90;;;;;;;;;;5087693;28;20942;-79
2023/08/29 00:33:20;;;;;;;3.88;2.67;;;;;;;;;;5084846;28;20036;-79
2023/08/29 00:35:47;;;;;;;3.70;2.60;;;;;;;;;;5068129;28;20048;-79
2023/08/29 00:38:14;;;;;;;2.60;2.40;;;;;;;;;;5088570;28;20513;-78
2023/08/29 00:40:40;;;;;;;3.10;2.83;;;;;;;;;;5091265;28;20123;-79
2023/08/29 00:43:06;;;;;;;3.08;2.78;;;;;;;;;;5076809;28;20055;-78
2023/08/29 00:45:33;;;;;;;4.05;2.88;;;;;;;;;;5090440;28;20055;-78
2023/08/29 00:48:00;;;;;;;4.55;2.88;;;;;;;;;;5084967;28;20119;-79
2023/08/29 00:50:27;;;;;;;3.63;2.53;;;;;;;;;;5090117;28;20146;-79
2023/08/29 00:52:57;;;;;;;3.42;2.55;;;;;;;;;;5076427;28;20295;-79
2023/08/29 00:55:23;;;;;;;3.97;3.13;;;;;;;;;;5095216;28;20044;-79
2023/08/29 00:57:55;;;;;;;3.17;2.67;;;;;;;;;;5087095;28;20376;-78
2023/08/29 01:00:22;;;;;;;3.47;2.50;;;;;;;;;;5091925;28;20043;-78
2023/08/29 01:02:48;;;;;;;4.70;2.97;;;;;;;;;;5093281;28;20452;-78
2023/08/29 01:05:14;;;;;;;4.25;3.20;;;;;;;;;;5092458;28;20051;-78
2023/08/29 01:07:40;;;;;;;2.85;2.65;;;;;;;;;;5091060;28;20368;-78
2023/08/29 01:10:07;;;;;;;4.05;2.50;;;;;;;;;;5091205;28;20063;-79
2023/08/29 01:12:40;;;;;;;4.70;2.90;;;;;;;;;;5093698;28;20048;-78
2023/08/29 01:15:19;;;;;;;3.55;3.03;;;;;;;;;;5091808;28;20071;-77
2023/08/29 01:17:48;;;;;;;3.60;3.13;;;;;;;;;;5085397;28;20105;-79
2023/08/29 01:20:15;;;;;;;3.55;3.20;;;;;;;;;;5092054;28;20039;-79
2023/08/29 01:22:53;;;;;;;4.68;3.10;;;;;;;;;;5090844;28;20494;-78
2023/08/29 01:25:40;;;;;;;5.05;3.35;;;;;;;;;;5071882;28;20051;-78
2023/08/29 01:28:06;;;;;;;4.13;3.20;;;;;;;;;;5089112;28;20051;-78
2023/08/29 01:30:33;;;;;;;6.30;3.30;;;;;;;;;;5087611;28;20082;-79
2023/08/29 01:32:59;;;;;;;5.43;3.10;;;;;;;;;;5086384;28;20042;-79
2023/08/29 01:35:26;;;;;;;4.25;3.10;;;;;;;;;;5088375;28;20048;-79
2023/08/29 01:37:52;;;;;;;3.20;2.90;;;;;;;;;;5066573;28;20040;-78
2023/08/29 01:40:18;;;;;;;3.72;2.97;;;;;;;;;;5091442;28;20060;-78
2023/08/29 01:42:44;;;;;;;3.38;2.85;;;;;;;;;;5089935;28;20105;-79
2023/08/29 01:45:10;;;;;;;3.42;2.55;;;;;;;;;;5091382;28;20070;-78
2023/08/29 01:47:36;;;;;;;3.58;2.90;;;;;;;;;;5091135;28;20059;-79
2023/08/29 01:50:04;;;;;;;3.08;2.63;;;;;;;;;;5091299;28;20052;-79
2023/08/29 01:52:30;;;;;;;4.60;3.03;;;;;;;;;;5091296;28;20486;-79
2023/08/29 01:54:57;;;;;;;4.75;3.05;;;;;;;;;;5093440;28;20036;-79
2023/08/29 01:57:24;;;;;;;3.25;2.72;;;;;;;;;;5067607;28;20099;-79
2023/08/29 01:59:51;;;;;;;4.07;2.88;;;;;;;;;;5080408;28;20122;-79
2023/08/29 02:02:18;;;;;;;6.65;3.20;;;;;;;;;;5088933;28;20165;-79
2023/08/29 02:04:44;;;;;;;2.90;2.60;;;;;;;;;;5091822;28;20079;-78
2023/08/29 02:07:10;;;;;;;3.95;3.00;;;;;;;;;;5090926;28;20040;-79
2023/08/29 02:09:36;;;;;;;4.43;2.80;;;;;;;;;;5085284;28;20070;-79
2023/08/29 02:12:02;;;;;;;4.65;2.90;;;;;;;;;;5087311;28;20079;-79
2023/08/29 02:14:28;;;;;;;3.42;3.00;;;;;;;;;;5081600;28;21741;-78
2023/08/29 02:16:54;;;;;;;3.25;2.63;;;;;;;;;;5082445;28;20135;-79
2023/08/29 02:19:20;;;;;;;5.53;2.80;;;;;;;;;;5086519;28;20028;-79
2023/08/29 02:21:46;;;;;;;3.30;2.63;;;;;;;;;;5089231;28;20082;-78
2023/08/29 02:24:12;;;;;;;3.72;2.70;;;;;;;;;;5092184;28;20048;-79
2023/08/29 02:26:38;;;;;;;4.18;3.10;;;;;;;;;;5089893;28;21176;-79
2023/08/29 02:29:04;;;;;;;4.40;3.17;;;;;;;;;;5088346;28;20073;-79
2023/08/29 02:31:30;;;;;;;4.22;3.00;;;;;;;;;;5086079;28;20406;-79
2023/08/29 02:33:56;;;;;;;5.55;3.20;;;;;;;;;;5084729;28;20040;-79
2023/08/29 02:36:23;;;;;;;4.05;3.30;;;;;;;;;;5085495;28;20060;-79
2023/08/29 02:38:49;;;;;;;3.35;3.00;;;;;;;;;;5089331;28;20089;-79
2023/08/29 02:41:15;;;;;;;3.50;3.20;;;;;;;;;;5087121;28;20082;-79
2023/08/29 02:43:41;;;;;;;4.95;3.13;;;;;;;;;;5084715;28;20048;-79
2023/08/29 02:46:07;;;;;;;3.47;2.85;;;;;;;;;;5086221;28;20055;-79
2023/08/29 02:48:33;;;;;;;3.05;2.78;;;;;;;;;;5083251;28;20063;-79
2023/08/29 02:50:59;;;;;;;3.35;3.00;;;;;;;;;;5085810;28;20054;-79
2023/08/29 02:53:25;;;;;;;3.40;3.10;;;;;;;;;;5087891;28;20407;-79
2023/08/29 02:55:52;;;;;;;3.47;2.90;;;;;;;;;;5090645;28;20435;-79
2023/08/29 02:58:18;;;;;;;4.05;3.17;;;;;;;;;;5089732;28;20056;-79
2023/08/29 03:00:44;;;;;;;5.65;3.30;;;;;;;;;;5067945;28;20120;-79
2023/08/29 03:03:11;;;;;;;3.28;2.83;;;;;;;;;;5090543;28;20044;-82
2023/08/29 03:05:37;;;;;;;5.53;3.45;;;;;;;;;;5091964;28;20040;-81
2023/08/29 03:08:06;;;;;;;3.28;2.97;;;;;;;;;;5070013;28;20052;-82
2023/08/29 03:10:35;;;;;;;3.45;3.15;;;;;;;;;;5088333;28;20074;-81
2023/08/29 03:13:01;;;;;;;3.80;3.00;;;;;;;;;;5085673;28;20036;-82
2023/08/29 03:15:31;;;;;;;4.72;3.03;;;;;;;;;;5090128;28;20063;-82
2023/08/29 03:17:59;;;;;;;3.33;3.03;;;;;;;;;;5091948;28;20136;-82
2023/08/29 03:20:25;;;;;;;7.03;3.38;;;;;;;;;;5092427;28;20058;-82
2023/08/29 03:22:52;;;;;;;3.42;3.13;;;;;;;;;;5090340;28;20052;-82
2023/08/29 03:25:22;;;;;;;4.97;3.25;;;;;;;;;;5088529;28;20105;-82
2023/08/29 03:27:49;;;;;;;3.00;2.70;;;;;;;;;;5069052;28;20552;-82
2023/08/29 03:30:15;;;;;;;3.45;2.80;;;;;;;;;;5087952;28;20036;-81
2023/08/29 03:32:41;;;;;;;3.55;2.85;;;;;;;;;;5085716;28;20070;-81
2023/08/29 03:35:07;;;;;;;4.88;2.80;;;;;;;;;;5087768;28;20032;-82
2023/08/29 03:37:33;;;;;;;3.33;3.03;;;;;;;;;;5090856;28;20040;-82
2023/08/29 03:39:59;;;;;;;3.58;3.20;;;;;;;;;;5093494;28;20118;-81
2023/08/29 03:42:26;;;;;;;3.63;3.30;;;;;;;;;;5086151;28;20114;-81
2023/08/29 03:44:52;;;;;;;3.97;3.40;;;;;;;;;;5082277;28;20089;-82
2023/08/29 03:47:18;;;;;;;5.30;3.08;;;;;;;;;;5086300;28;20143;-82
2023/08/29 03:49:44;;;;;;;4.28;2.95;;;;;;;;;;5069941;28;20036;-82
2023/08/29 03:52:11;;;;;;;3.20;2.90;;;;;;;;;;5088756;28;20101;-81
2023/08/29 03:54:37;;;;;;;3.80;3.50;;;;;;;;;;5089015;28;20071;-82
2023/08/29 03:57:03;;;;;;;4.22;3.20;;;;;;;;;;5090126;28;20048;-81
2023/08/29 03:59:29;;;;;;;5.18;3.40;;;;;;;;;;5089166;28;20071;-81
2023/08/29 04:01:55;;;;;;;4.70;3.70;;;;;;;;;;5081710;28;20124;-82
2023/08/29 04:04:22;;;;;;;5.18;3.80;;;;;;;;;;5089187;28;20471;-82
2023/08/29 04:06:48;;;;;;;4.40;3.70;;;;;;;;;;5093911;28;20514;-81
2023/08/29 04:09:14;;;;;;;5.28;4.18;;;;;;;;;;5087301;28;20510;-81
2023/08/29 04:11:40;;;;;;;4.13;3.80;;;;;;;;;;5088586;28;20052;-82
2023/08/29 04:14:06;;;;;;;6.93;4.30;;;;;;;;;;5069672;28;20584;-82
2023/08/29 04:16:32;;;;;;;5.60;3.90;;;;;;;;;;5086976;28;20071;-81
2023/08/29 04:18:58;;;;;;;7.32;3.80;;;;;;;;;;5079721;28;20496;-82
2023/08/29 04:21:24;;;;;;;4.65;3.75;;;;;;;;;;5088531;28;20487;-82
2023/08/29 04:23:50;;;;;;;6.93;3.60;;;;;;;;;;5088657;28;20044;-82
2023/08/29 04:26:16;;;;;;;6.65;3.80;;;;;;;;;;5088335;28;20063;-82
2023/08/29 04:28:42;;;;;;;4.45;3.88;;;;;;;;;;5087149;28;20606;-83
2023/08/29 04:31:09;;;;;;;5.95;4.07;;;;;;;;;;5085076;28;20453;-82
2023/08/29 04:33:35;;;;;;;4.57;4.00;;;;;;;;;;5092636;28;20052;-83
2023/08/29 04:36:01;;;;;;;6.22;3.80;;;;;;;;;;5084317;28;20036;-82
2023/08/29 04:38:28;;;;;;;5.05;4.18;;;;;;;;;;5085604;28;20056;-82
2023/08/29 04:40:54;;;;;;;3.85;3.42;;;;;;;;;;5085989;28;20036;-82
2023/08/29 04:43:20;;;;;;;4.72;4.05;;;;;;;;;;5088364;28;20518;-82
2023/08/29 04:45:46;;;;;;;6.60;4.00;;;;;;;;;;5086939;28;20040;-82
2023/08/29 04:48:13;;;;;;;6.15;3.95;;;;;;;;;;5087843;28;20043;-82
2023/08/29 04:50:40;;;;;;;6.60;3.85;;;;;;;;;;5089018;28;20071;-82
2023/08/29 04:53:06;;;;;;;5.93;3.40;;;;;;;;;;5083209;28;20040;-82
2023/08/29 04:55:32;;;;;;;3.92;3.20;;;;;;;;;;5063043;28;20043;-82
2023/08/29 04:57:58;;;;;;;4.13;2.70;;;;;;;;;;5088063;28;20075;-83
2023/08/29 05:00:24;;;;;;;2.60;2.40;;;;;;;;;;5086793;28;20468;-82
2023/08/29 05:02:50;;;;;;;2.78;2.00;;;;;;;;;;5090083;28;20059;-82
2023/08/29 05:05:17;;;;;;;4.75;2.28;;;;;;;;;;5088892;28;20047;-81
2023/08/29 05:07:43;;;;;;;3.70;2.08;;;;;;;;;;5089319;28;20479;-82
2023/08/29 05:10:09;;;;;;;3.13;1.98;;;;;;;;;;5086782;28;20090;-81
2023/08/29 05:12:35;;;;;;;2.95;2.10;;;;;;;;;;5081119;28;20510;-82
2023/08/29 05:15:01;;;;;;;5.03;3.40;;;;;;;;;;5081499;28;20042;-82
2023/08/29 05:17:27;;;;;;;3.38;2.65;;;;;;;;;;5087410;28;20127;-82
2023/08/29 05:19:53;;;;;;;3.50;2.50;;;;;;;;;;5088542;28;20583;-82
2023/08/29 05:22:19;;;;;;;2.72;2.33;;;;;;;;;;5086937;28;20130;-82
2023/08/29 05:24:45;;;;;;;5.40;2.88;;;;;;;;;;5090283;28;20063;-82
2023/08/29 05:27:11;;;;;;;4.03;2.78;;;;;;;;;;5094854;28;20083;-82
2023/08/29 05:29:37;;;;;;;3.88;2.58;;;;;;;;;;5087177;28;20044;-83
2023/08/29 05:32:04;;;;;;;3.90;2.53;;;;;;;;;;5087861;28;20079;-82
2023/08/29 05:34:30;;;;;;;3.40;2.90;;;;;;;;;;5088243;28;20051;-82
2023/08/29 05:36:56;;;;;;;4.15;3.00;;;;;;;;;;5089618;28;20040;-82
2023/08/29 05:39:23;;;;;;;5.32;2.80;;;;;;;;;;5090127;28;20503;-82
2023/08/29 05:41:49;;;;;;;4.35;2.85;;;;;;;;;;5089814;28;20120;-82
2023/08/29 05:44:15;;;;;;;5.47;2.90;;;;;;;;;;5088235;28;20945;-82
2023/08/29 05:46:41;;;;;;;3.30;3.00;;;;;;;;;;5086115;28;20085;-82
2023/08/29 05:49:07;;;;;;;4.68;2.95;;;;;;;;;;5090563;28;20044;-82
2023/08/29 05:51:33;;;;;;;5.38;2.95;;;;;;;;;;5089025;28;20466;-82
2023/08/29 05:54:00;;;;;;;4.57;2.80;;;;;;;;;;5090139;28;20044;-82
2023/08/29 05:56:26;;;;;;;4.53;2.90;;;;;;;;;;5071448;28;20500;-82
2023/08/29 05:58:52;;;;;;;6.43;3.08;;;;;;;;;;5079202;28;20483;-82
2023/08/29 06:01:18;;;;;;;3.15;2.85;;;;;;;;;;5087357;28;20048;-81
2023/08/29 06:03:44;;;;;;;4.90;3.10;;;;;;;;;;5078415;28;20127;-81
2023/08/29 06:06:10;;;;;;;3.25;3.00;;;;;;;;;;5086477;28;20052;-81
2023/08/29 06:08:36;;;;;;;4.88;3.45;;;;;;;;;;5090731;28;20065;-81
2023/08/29 06:11:03;;;;;;;3.90;3.50;;;;;;;;;;5089731;28;20079;-82
2023/08/29 06:13:30;;;;;;;4.57;3.50;;;;;;;;;;5088971;28;20052;-82
2023/08/29 06:15:56;;;;;;;5.65;3.50;;;;;;;;;;5071045;28;20040;-81
2023/08/29 06:18:22;;;;;;;6.93;4.03;;;;;;;;;;5090736;28;20056;-82
2023/08/29 06:20:48;;;;;;;6.70;3.90;;;;;;;;;;5087583;28;20128;-81
2023/08/29 06:23:14;;;;;;;5.40;3.72;;;;;;;;;;5101204;28;20086;-81
2023/08/29 06:25:41;;;;;;;6.82;3.80;;;;;;;;;;5072471;28;20047;-81
2023/08/29 06:28:07;;;;;;;4.25;3.40;;;;;;;;;;5090658;28;20048;-81
2023/08/29 06:30:35;;;;;;;4.13;3.63;;;;;;;;;;5091070;28;20044;-79
2023/08/29 06:33:01;;;;;;;3.92;3.25;;;;;;;;;;5091768;28;20042;-79
2023/08/29 06:35:27;;;;;;;3.53;3.20;;;;;;;;;;5090313;28;20051;-80
2023/08/29 06:37:55;;;;;;;3.65;3.22;;;;;;;;;;5080307;28;20043;-80
2023/08/29 06:40:21;;;;;;;3.45;2.92;;;;;;;;;;5069446;28;20052;-80
2023/08/29 06:42:48;;;;;;;5.70;3.45;;;;;;;;;;5089857;28;20093;-81
2023/08/29 06:45:14;;;;;;;4.25;3.05;;;;;;;;;;5085661;28;20047;-80
2023/08/29 06:47:40;;;;;;;4.32;3.00;;;;;;;;;;5072069;28;20139;-81
2023/08/29 06:50:08;;;;;;;5.25;3.08;;;;;;;;;;5091638;28;20127;-81
2023/08/29 06:52:34;;;;;;;5.30;3.03;;;;;;;;;;5084363;28;20124;-80
2023/08/29 06:55:00;;;;;;;3.85;2.85;;;;;;;;;;5078033;28;20037;-80
2023/08/29 06:57:26;;;;;;;4.22;3.05;;;;;;;;;;5095944;28;20040;-80
2023/08/29 06:59:52;;;;;;;3.13;2.83;;;;;;;;;;5091413;28;20506;-80
2023/08/29 07:02:21;;;;;;;4.22;3.28;;;;;;;;;;5100377;28;20193;-81
2023/08/29 07:04:48;;;;;;;5.05;3.55;;;;;;;;;;5073108;28;20060;-80
2023/08/29 07:07:15;;;;;;;4.07;2.78;;;;;;;;;;5092163;28;20044;-81
2023/08/29 07:09:52;;;;;;;3.15;2.88;;;;;;;;;;5070170;28;20415;-81
2023/08/29 07:12:22;;;;;;;4.30;2.90;;;;;;;;;;5051266;28;20052;-81
2023/08/29 07:14:57;;;;;;;3.92;3.35;;;;;;;;;;5070559;28;20064;-81
2023/08/29 07:17:28;;;;;;;6.03;3.22;;;;;;;;;;5091980;28;20052;-82
2023/08/29 07:19:59;;;;;;;4.05;3.40;;;;;;;;;;5066334;28;20040;-82
2023/08/29 07:22:25;;;;;;;3.72;2.50;;;;;;;;;;5060766;28;20144;-83
2023/08/29 07:24:52;;;;;;;2.47;2.22;;;;;;;;;;5075490;28;20463;-83
2023/08/29 07:27:25;;;;;;;2.63;2.08;;;;;;;;;;5086800;28;20087;-80
2023/08/29 07:29:55;;;;;;;1.98;1.80;;;;;;;;;;5096014;28;20113;-80
2023/08/29 07:32:21;;;;;;;1.90;1.80;;;;;;;;;;5091791;28;20044;-81
2023/08/29 07:34:54;;;;;;;1.85;1.75;;;;;;;;;;5086117;28;20048;-81
2023/08/29 07:37:20;;;;;;;1.70;1.60;;;;;;;;;;5071079;28;20539;-79
2023/08/29 07:39:47;;;;;;;1.90;1.80;;;;;;;;;;5070012;28;20494;-82
2023/08/29 07:42:19;;;;;;;1.90;1.80;;;;;;;;;;5088262;28;20514;-82
2023/08/29 07:44:47;;;;;;;1.95;1.75;;;;;;;;;;5071677;28;20055;-80
2023/08/29 07:47:13;;;;;;;2.80;1.90;;;;;;;;;;5078889;28;20048;-76
2023/08/29 07:49:40;;;;;;;2.47;1.95;;;;;;;;;;5090505;28;20059;-80
2023/08/29 07:52:07;;;;;;;3.00;1.85;;;;;;;;;;5069095;28;20059;-76
2023/08/29 07:54:41;;;;;;;1.88;1.70;;;;;;;;;;5081969;28;20399;-83
2023/08/29 07:57:27;;;;;;;2.20;1.83;;;;;;;;;;5031290;28;20110;-81
2023/08/29 08:00:03;;;;;;;1.67;1.58;;;;;;;;;;5081605;28;20056;-79
2023/08/29 08:02:29;;;;;;;2.00;1.80;;;;;;;;;;5088767;28;20117;-79
2023/08/29 08:04:55;;;;;;;3.08;1.80;;;;;;;;;;5066223;28;20074;-81
2023/08/29 08:07:21;;;;;;;2.58;1.98;;;;;;;;;;5071586;28;20138;-78
2023/08/29 08:09:47;;;;;;;2.80;1.77;;;;;;;;;;5084563;28;20080;-78
2023/08/29 08:12:14;;;;;;;1.90;1.80;;;;;;;;;;5086053;28;20556;-80
2023/08/29 08:14:41;;;;;;;2.00;1.80;;;;;;;;;;5084841;28;20052;-80
2023/08/29 08:17:10;;;;;;;1.90;1.80;;;;;;;;;;5072332;28;20083;-77
2023/08/29 08:19:36;;;;;;;2.10;1.90;;;;;;;;;;5087498;28;20036;-79
2023/08/29 08:22:08;;;;;;;4.93;2.20;;;;;;;;;;5088796;28;20510;-79
2023/08/29 08:24:34;;;;;;;5.30;2.10;;;;;;;;;;5089884;28;20044;-80
2023/08/29 08:27:05;;;;;;;3.28;1.92;;;;;;;;;;5096256;28;20040;-80
2023/08/29 08:29:35;;;;;;;1.77;1.67;;;;;;;;;;5091003;28;20123;-80
2023/08/29 08:32:01;;;;;;;2.10;1.90;;;;;;;;;;5070601;28;20068;-80
2023/08/29 08:34:28;;;;;;;3.10;2.03;;;;;;;;;;5072810;28;20052;-80
2023/08/29 08:36:54;;;;;;;3.30;2.10;;;;;;;;;;5088501;28;20048;-79
2023/08/29 08:39:23;;;;;;;3.80;2.10;;;;;;;;;;5088075;28;20051;-80
2023/08/29 08:41:50;;;;;;;1.90;1.80;;;;;;;;;;5090106;28;20107;-80
2023/08/29 08:44:21;;;;;;;1.83;1.73;;;;;;;;;;5088817;28;20056;-79
2023/08/29 08:46:50;;;;;;;2.20;2.00;;;;;;;;;;5071912;28;20040;-79
2023/08/29 08:49:28;;;;;;;2.13;1.83;;;;;;;;;;5088458;28;20052;-79
2023/08/29 08:52:13;;;;;;;3.03;1.85;;;;;;;;;;5054232;28;20106;-79
2023/08/29 08:54:39;;;;;;;4.45;1.90;;;;;;;;;;5071763;28;20052;-79
2023/08/29 08:57:11;;;;;;;2.70;1.77;;;;;;;;;;5071363;28;20105;-79
2023/08/29 08:59:37;;;;;;;2.00;1.90;;;;;;;;;;5069103;28;20487;-79
2023/08/29 09:02:15;;;;;;;3.25;1.73;;;;;;;;;;5093852;28;20040;-79
2023/08/29 09:04:42;;;;;;;2.30;2.10;;;;;;;;;;5094030;28;20038;-79
2023/08/29 09:07:08;;;;;;;2.33;1.90;;;;;;;;;;5093417;28;20547;-78
2023/08/29 09:09:34;;;;;;;2.17;1.80;;;;;;;;;;5088428;28;20047;-78
2023/08/29 09:12:00;;;;;;;2.20;2.00;;;;;;;;;;5074660;28;20083;-79
2023/08/29 09:14:27;;;;;;;2.47;1.90;;;;;;;;;;5089999;28;20131;-79
2023/08/29 09:16:57;;;;;;;1.90;1.80;;;;;;;;;;5087754;28;20670;-79
2023/08/29 09:19:29;;;;;;;2.63;2.13;;;;;;;;;;5093517;28;20127;-79
2023/08/29 09:21:55;;;;;;;3.88;2.00;;;;;;;;;;5093067;28;20040;-79
2023/08/29 09:24:22;;;;;;;2.13;1.90;;;;;;;;;;5092911;28;20052;-79
2023/08/29 09:26:51;;;;;;;1.90;1.80;;;;;;;;;;5091562;28;20032;-79
2023/08/29 09:29:18;;;;;;;1.80;1.70;;;;;;;;;;5074072;28;20061;-79
2023/08/29 09:31:48;;;;;;;1.75;1.65;;;;;;;;;;5094126;28;20075;-79
2023/08/29 09:34:46;;;;;;;2.55;1.90;;;;;;;;;;5074122;28;20513;-79
2023/08/29 09:37:14;;;;;;;2.10;2.00;;;;;;;;;;5065183;28;20777;-79
2023/08/29 09:39:46;;;;;;;;;;;;;;;;;;5093860;28;20036;-79
2023/08/29 09:42:20;;;;;;;1.80;1.70;;;;;;;;;;5092550;28;19927;-79
2023/08/29 09:44:49;;;;;;;1.92;1.70;;;;;;;;;;5073515;28;20054;-79
2023/08/29 09:47:24;;;;;;;3.05;2.08;;;;;;;;;;5091687;28;20052;-79
2023/08/29 09:49:51;;;;;;;2.17;1.80;;;;;;;;;;5065040;28;20089;-79
2023/08/29 09:52:21;;;;;;;1.90;1.80;;;;;;;;;;5093794;28;20475;-79
2023/08/29 09:54:48;;;;;;;1.85;1.75;;;;;;;;;;5072763;28;20044;-79
2023/08/29 09:57:26;;;;;;;2.25;2.05;;;;;;;;;;5080513;28;20113;-79
2023/08/29 09:59:52;;;;;;;1.90;1.80;;;;;;;;;;5067177;28;20380;-80
2023/08/29 10:02:20;;;;;;;2.70;2.05;;;;;;;;;;5072745;28;20137;-80
2023/08/29 10:04:47;;;;;;;2.00;1.90;;;;;;;;;;5071591;28;20052;-80
2023/08/29 10:07:16;;;;;;;4.72;2.38;;;;;;;;;;5092609;28;20500;-78
2023/08/29 10:09:43;;;;;;;2.08;1.98;;;;;;;;;;5064192;28;20048;-79
2023/08/29 10:12:09;;;;;;;2.20;2.10;;;;;;;;;;5089277;28;20518;-78
2023/08/29 10:14:38;;;;;;;2.53;2.30;;;;;;;;;;5071573;28;20109;-78
2023/08/29 10:17:05;;;;;;;3.03;2.40;;;;;;;;;;5091199;28;20131;-78
2023/08/29 10:19:35;;;;;;;2.88;2.53;;;;;;;;;;5089473;28;20043;-78
2023/08/29 10:22:04;;;;;;;2.88;2.50;;;;;;;;;;5088466;28;20080;-78
2023/08/29 10:24:31;;;;;;;2.40;2.30;;;;;;;;;;5085663;28;20093;-78
2023/08/29 10:26:57;;;;;;;3.33;2.10;;;;;;;;;;5088440;28;20380;-79
2023/08/29 10:29:23;;;;;;;2.55;2.22;;;;;;;;;;5088133;28;20102;-78
2023/08/29 10:31:49;;;;;;;3.53;2.35;;;;;;;;;;5068470;28;20048;-77
2023/08/29 10:34:19;;;;;;;2.30;2.10;;;;;;;;;;5089018;28;20499;-77
2023/08/29 10:36:46;;;;;;;2.58;2.33;;;;;;;;;;5092762;28;20048;-77
2023/08/29 10:39:15;;;;;;;2.25;2.05;;;;;;;;;;5085253;28;20040;-77
2023/08/29 10:41:46;;;;;;;3.08;2.13;;;;;;;;;;5089118;28;20044;-77
2023/08/29 10:44:30;;;;;;;2.42;1.92;;;;;;;;;;5090770;28;20036;-77
2023/08/29 10:47:15;;;;;;;2.22;1.80;;;;;;;;;;5090660;28;20502;-77
2023/08/29 10:49:43;;;;;;;1.90;1.80;;;;;;;;;;5084333;28;20048;-83
2023/08/29 10:52:36;;;;;;;2.17;1.98;;;;;;;;;;5082800;28;20040;-78
2023/08/29 10:55:08;;;;;;;3.00;1.80;;;;;;;;;;5070986;28;20075;-78
2023/08/29 10:57:34;;;;;;;2.00;1.90;;;;;;;;;;5092285;28;20044;-77
2023/08/29 11:00:01;;;;;;;2.00;1.88;;;;;;;;;;5087983;28;20090;-77
2023/08/29 11:02:29;;;;;;;2.13;1.80;;;;;;;;;;5087544;28;20059;-77
2023/08/29 11:05:04;;;;;;;1.88;1.77;;;;;;;;;;5070804;28;20056;-76
2023/08/29 11:07:31;;;;;;;1.92;1.83;;;;;;;;;;5089364;28;20514;-76
2023/08/29 11:10:16;;;;;;;2.03;1.90;;;;;;;;;;5085045;28;20054;-78
2023/08/29 11:13:01;;;;;;;2.92;2.10;;;;;;;;;;5062810;28;22475;-76
2023/08/29 11:15:45;;;;;;;1.92;1.80;;;;;;;;;;5087041;28;20132;-76
2023/08/29 11:18:21;;;;;;;2.10;1.90;;;;;;;;;;5081999;28;20483;-77
2023/08/29 11:20:48;;;;;;;2.33;2.00;;;;;;;;;;5089785;28;20139;-76
2023/08/29 11:23:14;;;;;;;4.22;2.10;;;;;;;;;;5086316;28;20044;-77
2023/08/29 11:25:42;;;;;;;3.50;2.15;;;;;;;;;;5087428;28;20101;-84
2023/08/29 11:28:12;;;;;;;2.97;2.00;;;;;;;;;;5057602;28;20070;-77
2023/08/29 11:30:38;;;;;;;2.10;1.77;;;;;;;;;;5057730;28;20047;-77
2023/08/29 11:33:04;;;;;;;2.30;2.00;;;;;;;;;;5087483;28;20097;-80
2023/08/29 11:35:32;;;;;;;3.35;1.98;;;;;;;;;;5087842;28;20166;-81
2023/08/29 11:37:58;;;;;;;2.60;1.98;;;;;;;;;;5091042;28;20044;-81
2023/08/29 11:40:27;;;;;;;2.22;1.92;;;;;;;;;;5088872;28;20043;-80
2023/08/29 11:42:53;;;;;;;1.90;1.80;;;;;;;;;;5096119;28;20096;-81
2023/08/29 11:45:19;;;;;;;1.98;1.88;;;;;;;;;;5071138;28;20059;-80
2023/08/29 11:47:48;;;;;;;2.42;2.00;;;;;;;;;;5089282;28;20500;-81
2023/08/29 11:50:16;;;;;;;2.53;1.98;;;;;;;;;;5071119;28;20048;-82
2023/08/29 11:52:42;;;;;;;2.20;2.10;;;;;;;;;;5080132;28;20047;-81
2023/08/29 11:55:11;;;;;;;4.32;2.20;;;;;;;;;;5086282;28;20395;-80
2023/08/29 11:57:38;;;;;;;2.95;2.00;;;;;;;;;;5090019;28;20036;-80
2023/08/29 12:00:08;;;;;;;2.42;2.17;;;;;;;;;;5088768;28;20167;-75
2023/08/29 12:02:34;;;;;;;2.20;2.10;;;;;;;;;;5075370;28;20117;-82
2023/08/29 12:05:00;;;;;;;2.25;2.05;;;;;;;;;;5074436;28;20169;-82
2023/08/29 12:07:32;;;;;;;2.40;2.20;;;;;;;;;;5091432;28;20044;-81
2023/08/29 12:10:06;;;;;;;2.10;2.00;;;;;;;;;;5071730;28;20093;-82
2023/08/29 12:12:35;;;;;;;2.38;1.85;;;;;;;;;;5088260;28;20529;-81
2023/08/29 12:15:10;;;;;;;2.15;2.00;;;;;;;;;;5089521;28;20426;-82
2023/08/29 12:17:38;;;;;;;2.42;2.20;;;;;;;;;;5081975;28;20047;-81
2023/08/29 12:20:24;;;;;;;3.90;2.35;;;;;;;;;;5088097;28;20483;-80
2023/08/29 12:22:52;;;;;;;2.33;2.10;;;;;;;;;;5085465;28;20046;-82
2023/08/29 12:25:19;;;;;;;2.60;2.17;;;;;;;;;;5080732;28;20170;-73
2023/08/29 12:27:45;;;;;;;2.85;2.10;;;;;;;;;;5081754;28;20044;-77
2023/08/29 12:30:14;;;;;;;3.17;2.03;;;;;;;;;;5074793;28;20032;-80
2023/08/29 12:32:42;;;;;;;2.35;2.08;;;;;;;;;;5088062;28;20083;-78
2023/08/29 12:35:11;;;;;;;2.63;2.17;;;;;;;;;;5095179;28;20056;-89
2023/08/29 12:37:38;;;;;;;4.80;2.10;;;;;;;;;;5091689;28;20036;-78
2023/08/29 12:40:05;;;;;;;2.03;1.92;;;;;;;;;;5074716;28;20511;-75
2023/08/29 12:42:31;;;;;;;3.13;2.20;;;;;;;;;;5097119;28;20052;-81
2023/08/29 12:44:57;;;;;;;2.67;2.17;;;;;;;;;;5092643;28;20483;-77
2023/08/29 12:47:23;;;;;;;2.05;1.90;;;;;;;;;;5085958;28;20480;-78
2023/08/29 12:49:49;;;;;;;2.20;2.00;;;;;;;;;;5093243;28;20543;-82
2023/08/29 12:52:15;;;;;;;2.50;2.30;;;;;;;;;;5071275;28;20039;-81
2023/08/29 12:54:44;;;;;;;3.17;2.13;;;;;;;;;;5094505;28;20093;-76
2023/08/29 12:57:10;;;;;;;2.42;2.08;;;;;;;;;;5093805;28;20105;-82
2023/08/29 12:59:36;;;;;;;2.75;2.33;;;;;;;;;;5093852;28;20081;-82
2023/08/29 13:02:02;;;;;;;4.38;2.55;;;;;;;;;;5090701;28;20050;-82
2023/08/29 13:04:29;;;;;;;2.50;2.30;;;;;;;;;;5086138;28;20040;-82
2023/08/29 13:06:55;;;;;;;3.80;2.70;;;;;;;;;;5096622;28;20427;-82
2023/08/29 13:09:21;;;;;;;3.90;2.47;;;;;;;;;;5099249;28;20111;-82
2023/08/29 13:11:47;;;;;;;4.20;2.75;;;;;;;;;;5096021;28;20297;-83
2023/08/29 13:14:13;;;;;;;4.22;2.72;;;;;;;;;;5092111;28;20420;-82
2023/08/29 13:16:40;;;;;;;4.18;2.65;;;;;;;;;;5096914;28;20044;-82
2023/08/29 13:19:07;;;;;;;3.13;2.30;;;;;;;;;;5073433;28;20044;-84
2023/08/29 13:21:33;;;;;;;2.85;2.40;;;;;;;;;;5091724;28;20053;-82
2023/08/29 13:24:00;;;;;;;3.22;2.70;;;;;;;;;;5074866;28;20047;-79
2023/08/29 13:26:29;;;;;;;4.00;2.58;;;;;;;;;;5095894;28;20100;-79
2023/08/29 13:28:55;;;;;;;2.83;2.53;;;;;;;;;;5058289;28;20076;-78
2023/08/29 13:31:24;;;;;;;3.40;2.90;;;;;;;;;;5094361;28;20463;-77
2023/08/29 13:33:51;;;;;;;2.70;2.50;;;;;;;;;;5093900;28;20052;-78
2023/08/29 13:36:17;;;;;;;3.55;2.40;;;;;;;;;;5092957;28;20070;-79
2023/08/29 13:38:43;;;;;;;2.72;2.55;;;;;;;;;;5098498;28;20082;-79
2023/08/29 13:41:09;;;;;;;3.42;2.80;;;;;;;;;;5093036;28;20048;-77
2023/08/29 13:43:35;;;;;;;3.10;2.90;;;;;;;;;;5084245;28;20041;-77
2023/08/29 13:46:01;;;;;;;3.10;2.65;;;;;;;;;;5085761;28;20083;-77
2023/08/29 13:48:27;;;;;;;2.90;2.60;;;;;;;;;;5088874;28;20068;-75
2023/08/29 13:50:55;;;;;;;4.57;3.03;;;;;;;;;;5088634;28;20101;-81
2023/08/29 13:53:21;;;;;;;3.13;2.60;;;;;;;;;;5097502;28;20490;-80
2023/08/29 13:55:49;;;;;;;3.20;2.47;;;;;;;;;;5084037;28;20130;-80
2023/08/29 13:58:15;;;;;;;3.72;2.42;;;;;;;;;;5094349;28;20134;-81
2023/08/29 14:00:41;;;;;;;3.10;2.53;;;;;;;;;;5091150;28;20387;-80
2023/08/29 14:03:08;;;;;;;4.97;2.20;;;;;;;;;;5092985;28;20493;-81
2023/08/29 14:05:34;;;;;;;3.95;2.30;;;;;;;;;;5090116;28;20475;-79
2023/08/29 14:08:03;;;;;;;3.20;2.40;;;;;;;;;;5086019;28;21396;-80
2023/08/29 14:10:29;;;;;;;2.40;2.20;;;;;;;;;;5092910;28;20063;-81
2023/08/29 14:12:55;;;;;;;3.90;2.65;;;;;;;;;;5076282;28;20044;-80
2023/08/29 14:15:22;;;;;;;2.85;2.63;;;;;;;;;;5088640;28;20038;-80
2023/08/29 14:17:50;;;;;;;2.85;2.45;;;;;;;;;;5092178;28;20399;-81
2023/08/29 14:20:16;;;;;;;3.60;2.70;;;;;;;;;;5093121;28;20541;-82
2023/08/29 14:22:42;;;;;;;4.20;2.75;;;;;;;;;;5092427;28;20500;-82
2023/08/29 14:25:08;;;;;;;4.03;2.65;;;;;;;;;;5084472;28;20097;-84
2023/08/29 14:27:35;;;;;;;3.95;3.42;;;;;;;;;;5064865;28;20144;-82
2023/08/29 14:30:05;;;;;;;3.03;2.75;;;;;;;;;;5083954;28;20062;-83
2023/08/29 14:32:39;;;;;;;4.95;3.10;;;;;;;;;;5091037;28;20116;-83
2023/08/29 14:35:05;;;;;;;4.22;2.63;;;;;;;;;;5090583;28;20169;-87
2023/08/29 14:37:31;;;;;;;4.20;3.05;;;;;;;;;;5080830;28;20479;-75
2023/08/29 14:39:58;;;;;;;3.08;2.63;;;;;;;;;;5088013;28;20046;-83
2023/08/29 14:42:27;;;;;;;3.70;2.80;;;;;;;;;;5088448;28;20062;-82
2023/08/29 14:44:53;;;;;;;4.57;2.60;;;;;;;;;;5073550;28;20394;-83
2023/08/29 14:47:24;;;;;;;4.63;2.63;;;;;;;;;;5074713;28;20052;-83